<?xml version="1.0" encoding="UTF-8" standalone="no" ?>
<gpx xmlns="http://www.topografix.com/GPX/1/1" xmlns:xsi="http://www.w3.org/2001/XMLSchema-instance" xsi:schemaLocation="http://www.topografix.com/GPX/1/1 http://www.topografix.com/GPX/1/1/gpx.xsd" version="1.1" creator="VisuGPX - https://www.visugpx.com">
  <metadata>
    <name>Notre dame de la Montagne à LAVOINE (03)</name>
    <desc><![CDATA[pas de balisage à faire avec la carte en main ou GPS.]]></desc>
  </metadata>
  <trk>
    <name><![CDATA[OR-8137938--Lavoine:notre dame de la montagne]]></name>
    <trkseg>
      <trkpt lat="45.99128" lon="3.6941">
        <ele>839</ele>
        <time>2017-11-24T10:28:56Z</time>
      </trkpt>
      <trkpt lat="45.99018" lon="3.69831">
        <ele>850</ele>
        <time>2017-11-24T10:30:56Z</time>
      </trkpt>
      <trkpt lat="45.98971" lon="3.69893">
        <ele>847</ele>
        <time>2017-11-24T10:32:56Z</time>
      </trkpt>
      <trkpt lat="45.98952" lon="3.69977">
        <ele>855</ele>
        <time>2017-11-24T10:34:56Z</time>
      </trkpt>
      <trkpt lat="45.98919" lon="3.70133">
        <ele>857</ele>
        <time>2017-11-24T10:36:56Z</time>
      </trkpt>
      <trkpt lat="45.98883" lon="3.70314">
        <ele>862</ele>
        <time>2017-11-24T10:38:56Z</time>
      </trkpt>
      <trkpt lat="45.98849" lon="3.70427">
        <ele>856</ele>
        <time>2017-11-24T10:40:56Z</time>
      </trkpt>
      <trkpt lat="45.98858" lon="3.70481">
        <ele>861</ele>
        <time>2017-11-24T10:42:56Z</time>
      </trkpt>
      <trkpt lat="45.98833" lon="3.70586">
        <ele>858</ele>
        <time>2017-11-24T10:44:56Z</time>
      </trkpt>
      <trkpt lat="45.988" lon="3.70696">
        <ele>854</ele>
        <time>2017-11-24T10:46:56Z</time>
      </trkpt>
      <trkpt lat="45.98852" lon="3.7073">
        <ele>864</ele>
        <time>2017-11-24T10:48:56Z</time>
      </trkpt>
      <trkpt lat="45.98836" lon="3.70869">
        <ele>865</ele>
        <time>2017-11-24T10:50:56Z</time>
      </trkpt>
      <trkpt lat="45.98767" lon="3.7099">
        <ele>861</ele>
        <time>2017-11-24T10:52:56Z</time>
      </trkpt>
      <trkpt lat="45.98754" lon="3.71133">
        <ele>872</ele>
        <time>2017-11-24T10:54:56Z</time>
      </trkpt>
      <trkpt lat="45.98797" lon="3.71256">
        <ele>895</ele>
        <time>2017-11-24T10:56:56Z</time>
      </trkpt>
      <trkpt lat="45.98763" lon="3.71389">
        <ele>896</ele>
        <time>2017-11-24T10:58:56Z</time>
      </trkpt>
      <trkpt lat="45.98672" lon="3.71633">
        <ele>901</ele>
        <time>2017-11-24T11:00:56Z</time>
      </trkpt>
      <trkpt lat="45.986" lon="3.7179">
        <ele>897</ele>
        <time>2017-11-24T11:02:56Z</time>
      </trkpt>
      <trkpt lat="45.986" lon="3.71914">
        <ele>894</ele>
        <time>2017-11-24T11:04:56Z</time>
      </trkpt>
      <trkpt lat="45.98637" lon="3.72195">
        <ele>895</ele>
        <time>2017-11-24T11:06:56Z</time>
      </trkpt>
      <trkpt lat="45.98649" lon="3.71932">
        <ele>905</ele>
        <time>2017-11-24T11:08:56Z</time>
      </trkpt>
      <trkpt lat="45.98708" lon="3.71813">
        <ele>921</ele>
        <time>2017-11-24T11:10:56Z</time>
      </trkpt>
      <trkpt lat="45.98728" lon="3.71693">
        <ele>920</ele>
        <time>2017-11-24T11:12:56Z</time>
      </trkpt>
      <trkpt lat="45.98806" lon="3.7155">
        <ele>923</ele>
        <time>2017-11-24T11:14:56Z</time>
      </trkpt>
      <trkpt lat="45.98897" lon="3.71389">
        <ele>935</ele>
        <time>2017-11-24T11:16:56Z</time>
      </trkpt>
      <trkpt lat="45.98904" lon="3.71331">
        <ele>935</ele>
        <time>2017-11-24T11:18:56Z</time>
      </trkpt>
      <trkpt lat="45.9905" lon="3.71185">
        <ele>956</ele>
        <time>2017-11-24T11:20:56Z</time>
      </trkpt>
      <trkpt lat="45.99104" lon="3.71131">
        <ele>962</ele>
        <time>2017-11-24T11:22:56Z</time>
      </trkpt>
      <trkpt lat="45.99186" lon="3.7103">
        <ele>964</ele>
        <time>2017-11-24T11:24:56Z</time>
      </trkpt>
      <trkpt lat="45.99319" lon="3.71093">
        <ele>971</ele>
        <time>2017-11-24T11:26:56Z</time>
      </trkpt>
      <trkpt lat="45.99586" lon="3.70953">
        <ele>961</ele>
        <time>2017-11-24T11:28:56Z</time>
      </trkpt>
      <trkpt lat="45.99772" lon="3.70908">
        <ele>956</ele>
        <time>2017-11-24T11:30:56Z</time>
      </trkpt>
      <trkpt lat="45.99993" lon="3.70932">
        <ele>941</ele>
        <time>2017-11-24T11:32:56Z</time>
      </trkpt>
      <trkpt lat="46.00157" lon="3.70835">
        <ele>924</ele>
        <time>2017-11-24T11:34:56Z</time>
      </trkpt>
      <trkpt lat="46.00051" lon="3.70852">
        <ele>931</ele>
        <time>2017-11-24T11:36:56Z</time>
      </trkpt>
      <trkpt lat="45.99966" lon="3.70781">
        <ele>928</ele>
        <time>2017-11-24T11:38:56Z</time>
      </trkpt>
      <trkpt lat="45.99934" lon="3.70659">
        <ele>912</ele>
        <time>2017-11-24T11:40:56Z</time>
      </trkpt>
      <trkpt lat="45.99873" lon="3.70556">
        <ele>894</ele>
        <time>2017-11-24T11:42:56Z</time>
      </trkpt>
      <trkpt lat="46.00016" lon="3.70545">
        <ele>886</ele>
        <time>2017-11-24T11:44:56Z</time>
      </trkpt>
      <trkpt lat="46.00136" lon="3.70584">
        <ele>876</ele>
        <time>2017-11-24T11:46:56Z</time>
      </trkpt>
      <trkpt lat="46.00146" lon="3.70509">
        <ele>861</ele>
        <time>2017-11-24T11:48:56Z</time>
      </trkpt>
      <trkpt lat="46.00158" lon="3.70462">
        <ele>852</ele>
        <time>2017-11-24T11:50:56Z</time>
      </trkpt>
      <trkpt lat="46.00125" lon="3.70404">
        <ele>848</ele>
        <time>2017-11-24T11:52:56Z</time>
      </trkpt>
      <trkpt lat="46.00182" lon="3.70376">
        <ele>838</ele>
        <time>2017-11-24T11:54:56Z</time>
      </trkpt>
      <trkpt lat="46.00206" lon="3.70314">
        <ele>828</ele>
        <time>2017-11-24T11:56:56Z</time>
      </trkpt>
      <trkpt lat="46.0017" lon="3.70241">
        <ele>822</ele>
        <time>2017-11-24T11:58:56Z</time>
      </trkpt>
      <trkpt lat="46.00075" lon="3.70217">
        <ele>816</ele>
        <time>2017-11-24T12:00:56Z</time>
      </trkpt>
      <trkpt lat="45.99993" lon="3.70202">
        <ele>812</ele>
        <time>2017-11-24T12:02:56Z</time>
      </trkpt>
      <trkpt lat="45.99881" lon="3.70067">
        <ele>779</ele>
        <time>2017-11-24T12:04:56Z</time>
      </trkpt>
      <trkpt lat="45.99839" lon="3.7011">
        <ele>788</ele>
        <time>2017-11-24T12:06:56Z</time>
      </trkpt>
      <trkpt lat="45.99757" lon="3.70054">
        <ele>781</ele>
        <time>2017-11-24T12:08:56Z</time>
      </trkpt>
      <trkpt lat="45.99847" lon="3.6999">
        <ele>765</ele>
        <time>2017-11-24T12:10:56Z</time>
      </trkpt>
      <trkpt lat="45.99934" lon="3.70026">
        <ele>769</ele>
        <time>2017-11-24T12:12:56Z</time>
      </trkpt>
      <trkpt lat="46.00033" lon="3.7">
        <ele>764</ele>
        <time>2017-11-24T12:14:56Z</time>
      </trkpt>
      <trkpt lat="45.99912" lon="3.69936">
        <ele>747</ele>
        <time>2017-11-24T12:16:56Z</time>
      </trkpt>
      <trkpt lat="45.99849" lon="3.69917">
        <ele>757</ele>
        <time>2017-11-24T12:18:56Z</time>
      </trkpt>
      <trkpt lat="45.99861" lon="3.69807">
        <ele>752</ele>
        <time>2017-11-24T12:20:56Z</time>
      </trkpt>
      <trkpt lat="45.99802" lon="3.69732">
        <ele>767</ele>
        <time>2017-11-24T12:22:56Z</time>
      </trkpt>
      <trkpt lat="45.99767" lon="3.69618">
        <ele>773</ele>
        <time>2017-11-24T12:24:56Z</time>
      </trkpt>
      <trkpt lat="45.99756" lon="3.69466">
        <ele>785</ele>
        <time>2017-11-24T12:26:56Z</time>
      </trkpt>
      <trkpt lat="45.9983" lon="3.69327">
        <ele>793</ele>
        <time>2017-11-24T12:28:56Z</time>
      </trkpt>
      <trkpt lat="45.99887" lon="3.69288">
        <ele>788</ele>
        <time>2017-11-24T12:30:56Z</time>
      </trkpt>
      <trkpt lat="45.9994" lon="3.69189">
        <ele>782</ele>
        <time>2017-11-24T12:32:56Z</time>
      </trkpt>
      <trkpt lat="45.99835" lon="3.69264">
        <ele>800</ele>
        <time>2017-11-24T12:34:56Z</time>
      </trkpt>
      <trkpt lat="45.99721" lon="3.69288">
        <ele>814</ele>
        <time>2017-11-24T12:36:56Z</time>
      </trkpt>
      <trkpt lat="45.99587" lon="3.69492">
        <ele>837</ele>
        <time>2017-11-24T12:38:56Z</time>
      </trkpt>
      <trkpt lat="45.99508" lon="3.69627">
        <ele>848</ele>
        <time>2017-11-24T12:40:56Z</time>
      </trkpt>
      <trkpt lat="45.99417" lon="3.69704">
        <ele>872</ele>
        <time>2017-11-24T12:42:56Z</time>
      </trkpt>
      <trkpt lat="45.99323" lon="3.69891">
        <ele>881</ele>
        <time>2017-11-24T12:44:56Z</time>
      </trkpt>
      <trkpt lat="45.99319" lon="3.70058">
        <ele>887</ele>
        <time>2017-11-24T12:46:56Z</time>
      </trkpt>
      <trkpt lat="45.9924" lon="3.70009">
        <ele>893</ele>
        <time>2017-11-24T12:48:56Z</time>
      </trkpt>
      <trkpt lat="45.9924" lon="3.69908">
        <ele>888</ele>
        <time>2017-11-24T12:50:56Z</time>
      </trkpt>
      <trkpt lat="45.99289" lon="3.69764">
        <ele>886</ele>
        <time>2017-11-24T12:52:56Z</time>
      </trkpt>
      <trkpt lat="45.99282" lon="3.69653">
        <ele>889</ele>
        <time>2017-11-24T12:54:56Z</time>
      </trkpt>
      <trkpt lat="45.99261" lon="3.69603">
        <ele>890</ele>
        <time>2017-11-24T12:56:56Z</time>
      </trkpt>
      <trkpt lat="45.99305" lon="3.69502">
        <ele>890</ele>
        <time>2017-11-24T12:58:56Z</time>
      </trkpt>
      <trkpt lat="45.99367" lon="3.69477">
        <ele>885</ele>
        <time>2017-11-24T13:00:56Z</time>
      </trkpt>
      <trkpt lat="45.99341" lon="3.69361">
        <ele>872</ele>
        <time>2017-11-24T13:02:56Z</time>
      </trkpt>
      <trkpt lat="45.9928" lon="3.69314">
        <ele>860</ele>
        <time>2017-11-24T13:04:56Z</time>
      </trkpt>
      <trkpt lat="45.9921" lon="3.69342">
        <ele>851</ele>
        <time>2017-11-24T13:06:56Z</time>
      </trkpt>
      <trkpt lat="45.99146" lon="3.69346">
        <ele>835</ele>
        <time>2017-11-24T13:08:56Z</time>
      </trkpt>
      <trkpt lat="45.99104" lon="3.69432">
        <ele>835</ele>
        <time>2017-11-24T13:10:56Z</time>
      </trkpt>
    </trkseg>
  </trk>
</gpx>